Time;durP1;ratioP1;P1;durP2;ratioP2;P2;SDS_P1;SDS_P2;PMS_P1;PMS_P2;Temp;Humidity;BMP_temperature;BMP_pressure;BME280_temperature;BME280_humidity;BME280_pressure;Samples;Min_cycle;Max_cycle;Signal;HPM_P1;HPM_P2
2021/07/07 00:00:24;;;;;;;10.98;7.15;;;16.70;99.90;;;;;;4993595;28;20166;-76
2021/07/07 00:02:51;;;;;;;11.57;6.55;;;16.70;99.90;;;;;;4993588;28;20513;-76
2021/07/07 00:05:18;;;;;;;9.85;6.03;;;16.70;99.90;;;;;;4999049;28;20022;-77
2021/07/07 00:07:44;;;;;;;7.80;5.47;;;16.70;99.90;;;;;;5000758;28;20137;-76
2021/07/07 00:10:14;;;;;;;7.97;5.10;;;16.70;99.90;;;;;;4993546;28;20611;-76
2021/07/07 00:12:40;;;;;;;10.43;5.03;;;16.70;99.90;;;;;;4993937;28;20029;-78
2021/07/07 00:15:12;;;;;;;8.85;5.07;;;16.80;99.90;;;;;;4993908;28;20070;-75
2021/07/07 00:17:38;;;;;;;;;;;16.80;99.90;;;;;;4992945;28;20023;-78
2021/07/07 00:20:06;;;;;;;8.13;4.85;;;16.70;99.90;;;;;;4993216;28;19992;-78
2021/07/07 00:22:31;;;;;;;8.15;5.57;;;16.80;99.90;;;;;;4993776;28;20023;-77
2021/07/07 00:24:57;;;;;;;7.85;5.18;;;16.70;99.90;;;;;;5006216;28;20053;-77
2021/07/07 00:27:24;;;;;;;8.75;4.80;;;16.70;99.90;;;;;;5013141;28;20030;-77
2021/07/07 00:29:51;;;;;;;7.93;4.75;;;16.70;99.90;;;;;;5011374;28;20492;-78
2021/07/07 00:32:18;;;;;;;8.48;4.97;;;16.80;99.90;;;;;;5012157;28;20537;-77
2021/07/07 00:34:46;;;;;;;7.47;4.72;;;16.70;99.90;;;;;;5007412;28;20499;-76
2021/07/07 00:37:12;;;;;;;9.15;5.28;;;16.80;99.90;;;;;;4993147;28;20030;-77
2021/07/07 00:39:38;;;;;;;6.78;4.70;;;16.70;99.90;;;;;;4992694;28;20029;-77
2021/07/07 00:42:04;;;;;;;6.00;3.90;;;16.70;99.90;;;;;;4993371;28;20030;-77
2021/07/07 00:44:30;;;;;;;7.40;4.43;;;16.70;99.90;;;;;;4993190;28;20476;-77
2021/07/07 00:46:55;;;;;;;6.80;4.28;;;16.70;99.90;;;;;;5008271;28;20503;-77
2021/07/07 00:49:21;;;;;;;7.75;4.78;;;16.80;99.90;;;;;;4992096;28;20038;-76
2021/07/07 00:51:47;;;;;;;7.57;4.38;;;16.70;99.90;;;;;;4993257;28;20026;-77
2021/07/07 00:54:14;;;;;;;8.27;4.35;;;16.70;99.90;;;;;;4992546;28;20162;-77
2021/07/07 00:56:41;;;;;;;6.75;4.15;;;16.80;99.90;;;;;;4992579;28;20124;-78
2021/07/07 00:59:08;;;;;;;7.22;4.57;;;16.70;99.90;;;;;;4992216;28;20026;-77
2021/07/07 01:01:34;;;;;;;7.03;4.63;;;16.80;99.90;;;;;;4992993;28;20090;-77
2021/07/07 01:04:00;;;;;;;6.97;4.38;;;16.80;99.90;;;;;;4992633;28;20034;-77
2021/07/07 01:06:25;;;;;;;8.80;5.25;;;16.80;99.90;;;;;;5010674;28;20503;-77
2021/07/07 01:08:51;;;;;;;7.57;4.72;;;16.70;99.90;;;;;;5011705;28;20403;-77
2021/07/07 01:11:17;;;;;;;8.65;5.03;;;16.60;99.90;;;;;;4995225;28;20038;-77
2021/07/07 01:13:42;;;;;;;8.07;4.82;;;16.70;99.90;;;;;;5028785;23;20073;-84
2021/07/07 01:16:08;;;;;;;8.20;5.40;;;16.70;99.90;;;;;;5008284;28;20037;-83
2021/07/07 01:18:35;;;;;;;10.05;5.63;;;16.70;99.90;;;;;;5029527;28;20017;-83
2021/07/07 01:21:01;;;;;;;10.20;6.25;;;16.70;99.90;;;;;;5030583;28;20487;-83
2021/07/07 01:23:27;;;;;;;10.68;6.38;;;16.50;99.90;;;;;;5021435;28;20040;-83
2021/07/07 01:25:53;;;;;;;10.88;6.97;;;16.60;99.90;;;;;;5010585;28;20030;-82
2021/07/07 01:28:19;;;;;;;9.10;6.10;;;16.60;99.90;;;;;;4992143;28;20049;-83
2021/07/07 01:30:45;;;;;;;13.38;6.85;;;16.60;99.90;;;;;;5010635;28;20076;-83
2021/07/07 01:33:11;;;;;;;10.93;7.03;;;16.70;99.90;;;;;;5009411;28;20026;-83
2021/07/07 01:35:36;;;;;;;9.27;5.90;;;16.60;99.90;;;;;;4992996;28;20431;-83
2021/07/07 01:38:03;;;;;;;9.40;5.95;;;16.60;99.90;;;;;;4992821;28;20396;-82
2021/07/07 01:40:31;;;;;;;9.23;6.25;;;16.60;99.90;;;;;;4992831;28;20029;-83
2021/07/07 01:42:56;;;;;;;12.23;5.97;;;16.50;99.90;;;;;;4974995;28;20121;-83
2021/07/07 01:45:24;;;;;;;12.05;6.70;;;16.40;99.90;;;;;;4974959;28;20185;-83
2021/07/07 01:47:52;;;;;;;11.13;6.72;;;16.40;99.90;;;;;;4977264;28;20117;-83
2021/07/07 01:50:18;;;;;;;14.80;5.88;;;16.40;99.90;;;;;;4977160;28;20576;-83
2021/07/07 01:52:44;;;;;;;11.45;6.82;;;16.40;99.90;;;;;;4977547;28;20153;-83
2021/07/07 01:55:12;;;;;;;9.38;6.22;;;16.30;99.90;;;;;;4994608;28;20106;-83
2021/07/07 01:57:49;;;;;;;11.65;6.30;;;16.30;99.90;;;;;;5002314;28;20499;-83
2021/07/07 02:00:15;;;;;;;11.52;6.60;;;16.30;99.90;;;;;;4996147;28;20072;-83
2021/07/07 02:02:41;;;;;;;8.82;5.93;;;16.30;99.90;;;;;;5008035;28;20061;-83
2021/07/07 02:05:08;;;;;;;9.13;5.80;;;16.30;99.90;;;;;;4993373;28;20030;-83
2021/07/07 02:07:34;;;;;;;8.05;4.63;;;16.30;99.90;;;;;;4976945;28;20034;-83
2021/07/07 02:10:01;;;;;;;7.40;4.80;;;16.10;99.90;;;;;;4993121;28;20030;-83
2021/07/07 02:12:26;;;;;;;7.20;4.70;;;16.20;99.90;;;;;;4977388;28;20404;-83
2021/07/07 02:14:52;;;;;;;7.35;4.60;;;16.10;99.90;;;;;;4994536;28;20039;-84
2021/07/07 02:17:18;;;;;;;7.03;4.40;;;16.10;99.90;;;;;;4977931;28;20065;-84
2021/07/07 02:19:43;;;;;;;7.50;4.72;;;16.20;99.90;;;;;;4980030;28;20053;-83
2021/07/07 02:22:09;;;;;;;7.28;4.60;;;16.20;99.90;;;;;;4998690;28;20030;-84
2021/07/07 02:24:34;;;;;;;9.30;4.57;;;16.20;99.90;;;;;;4986043;28;20030;-84
2021/07/07 02:27:00;;;;;;;7.13;4.13;;;16.30;99.90;;;;;;4994986;28;20038;-84
2021/07/07 02:29:26;;;;;;;5.88;3.83;;;16.20;99.90;;;;;;4995407;28;20488;-84
2021/07/07 02:31:52;;;;;;;7.13;3.58;;;16.00;99.90;;;;;;4989028;28;20065;-84
2021/07/07 02:34:17;;;;;;;7.63;4.18;;;16.00;99.90;;;;;;5018051;28;20062;-84
2021/07/07 02:36:43;;;;;;;6.68;3.67;;;16.10;99.90;;;;;;4991919;28;20030;-84
2021/07/07 02:39:09;;;;;;;5.75;3.60;;;16.10;99.90;;;;;;4996147;28;20022;-84
2021/07/07 02:41:34;;;;;;;6.90;4.38;;;16.10;99.90;;;;;;4996333;28;20034;-84
2021/07/07 02:44:00;;;;;;;7.30;4.07;;;16.10;99.90;;;;;;4996358;28;20129;-83
2021/07/07 02:46:26;;;;;;;5.43;3.65;;;16.10;99.90;;;;;;4980717;28;20026;-82
2021/07/07 02:48:51;;;;;;;7.43;3.72;;;16.20;99.90;;;;;;4997421;28;20070;-84
2021/07/07 02:51:17;;;;;;;9.13;3.92;;;16.20;99.90;;;;;;4996270;28;20038;-84
2021/07/07 02:53:43;;;;;;;5.20;3.00;;;16.20;99.90;;;;;;4997874;28;20536;-84
2021/07/07 02:56:08;;;;;;;5.50;3.55;;;16.20;99.90;;;;;;4996072;28;20033;-83
2021/07/07 02:58:34;;;;;;;5.82;3.58;;;16.30;99.90;;;;;;4996330;28;20034;-83
2021/07/07 03:01:01;;;;;;;6.55;3.17;;;16.30;99.90;;;;;;4980206;28;20137;-84
2021/07/07 03:03:27;;;;;;;5.68;3.53;;;16.30;99.90;;;;;;5017104;28;20491;-83
2021/07/07 03:06:00;;;;;;;6.88;2.90;;;16.20;99.90;;;;;;5016852;28;20120;-83
2021/07/07 03:08:31;;;;;;;5.47;2.72;;;16.20;99.90;;;;;;5016433;28;20033;-85
2021/07/07 03:10:57;;;;;;;5.07;3.05;;;16.20;99.90;;;;;;4996976;28;20117;-83
2021/07/07 03:13:24;;;;;;;5.57;3.20;;;16.20;99.90;;;;;;4978401;28;20037;-84
2021/07/07 03:15:51;;;;;;;6.18;3.72;;;16.30;99.90;;;;;;4999466;28;20046;-83
2021/07/07 03:18:18;;;;;;;7.30;3.55;;;16.30;99.90;;;;;;4997041;28;20037;-83
2021/07/07 03:20:45;;;;;;;5.28;3.17;;;16.30;99.90;;;;;;4994699;28;20083;-84
2021/07/07 03:23:11;;;;;;;6.13;3.15;;;16.30;99.90;;;;;;5017301;28;20467;-83
2021/07/07 03:25:37;;;;;;;5.65;3.25;;;16.30;99.90;;;;;;4999034;28;20069;-84
2021/07/07 03:28:04;;;;;;;6.60;3.92;;;16.30;99.90;;;;;;4988799;28;20445;-83
2021/07/07 03:30:30;;;;;;;5.78;3.17;;;16.40;99.90;;;;;;4997218;28;20456;-84
2021/07/07 03:32:57;;;;;;;6.38;3.35;;;16.30;99.90;;;;;;4985409;28;20037;-84
2021/07/07 03:35:24;;;;;;;5.68;3.13;;;16.30;99.90;;;;;;4979081;28;20148;-84
2021/07/07 03:37:49;;;;;;;6.22;3.45;;;16.30;99.90;;;;;;4996529;28;20072;-84
2021/07/07 03:40:16;;;;;;;6.07;3.88;;;16.30;99.90;;;;;;4979482;28;20096;-83
2021/07/07 03:42:42;;;;;;;5.35;3.10;;;16.20;99.90;;;;;;4979231;28;20034;-83
2021/07/07 03:45:10;;;;;;;5.38;3.28;;;16.20;99.90;;;;;;4996429;28;20034;-83
2021/07/07 03:47:36;;;;;;;5.85;3.05;;;16.20;99.90;;;;;;4995609;28;20037;-83
2021/07/07 03:50:02;;;;;;;5.10;2.53;;;16.20;99.90;;;;;;4978719;28;20102;-83
2021/07/07 03:52:28;;;;;;;4.40;2.22;;;16.20;99.90;;;;;;4979123;28;20460;-83
2021/07/07 03:54:53;;;;;;;3.25;1.70;;;16.20;99.90;;;;;;4978387;28;20069;-82
2021/07/07 03:57:19;;;;;;;2.30;0.98;;;16.10;99.90;;;;;;4978045;28;20057;-83
2021/07/07 03:59:46;;;;;;;2.72;0.93;;;16.20;99.90;;;;;;4977506;28;20026;-83
2021/07/07 04:02:12;;;;;;;2.58;0.93;;;16.10;99.90;;;;;;4986592;28;20092;-82
2021/07/07 04:04:38;;;;;;;2.63;1.15;;;16.10;99.90;;;;;;4995297;28;20029;-82
2021/07/07 04:07:04;;;;;;;2.00;1.00;;;16.10;99.90;;;;;;5013260;28;20069;-83
2021/07/07 04:09:30;;;;;;;2.28;0.90;;;16.20;99.90;;;;;;4987358;28;20463;-83
2021/07/07 04:11:56;;;;;;;1.92;0.85;;;16.20;99.90;;;;;;4976195;28;20042;-82
2021/07/07 04:14:24;;;;;;;1.85;0.65;;;16.30;99.90;;;;;;4975771;28;20034;-82
2021/07/07 04:16:51;;;;;;;2.22;0.80;;;16.20;99.90;;;;;;4984687;28;20037;-82
2021/07/07 04:19:17;;;;;;;2.08;0.70;;;16.30;99.90;;;;;;5012073;28;20034;-82
2021/07/07 04:21:43;;;;;;;2.17;1.10;;;16.30;99.90;;;;;;4987142;28;20030;-82
2021/07/07 04:24:09;;;;;;;2.65;0.90;;;16.30;99.90;;;;;;5007422;28;20041;-82
2021/07/07 04:26:35;;;;;;;3.97;1.27;;;16.30;99.90;;;;;;4989685;28;20034;-82
2021/07/07 04:29:01;;;;;;;3.05;1.13;;;16.30;99.90;;;;;;4991847;28;20034;-82
2021/07/07 04:31:27;;;;;;;5.70;1.45;;;16.30;99.90;;;;;;5004043;28;20030;-84
2021/07/07 04:33:53;;;;;;;2.85;1.40;;;16.30;99.90;;;;;;4996632;28;20030;-84
2021/07/07 04:36:18;;;;;;;3.25;1.63;;;16.30;99.90;;;;;;4994573;28;20026;-84
2021/07/07 04:38:44;;;;;;;4.20;1.88;;;16.30;99.90;;;;;;5013289;28;20033;-84
2021/07/07 04:41:10;;;;;;;3.83;1.70;;;16.40;99.90;;;;;;5013677;28;20033;-84
2021/07/07 04:43:36;;;;;;;3.65;2.08;;;16.40;99.90;;;;;;4992517;28;20511;-87
2021/07/07 04:46:02;;;;;;;3.80;2.40;;;16.50;99.90;;;;;;4998490;28;20026;-88
2021/07/07 04:48:33;;;;;;;5.82;3.08;;;16.50;99.90;;;;;;4987117;28;20034;-89
2021/07/07 04:51:01;;;;;;;4.63;2.73;;;16.50;99.90;;;;;;4990176;28;20057;-89
2021/07/07 04:53:27;;;;;;;4.10;2.42;;;16.50;99.90;;;;;;5009557;28;20030;-89
2021/07/07 04:55:54;;;;;;;8.15;2.90;;;16.50;99.90;;;;;;5000633;28;20030;-88
2021/07/07 04:58:24;;;;;;;4.65;2.50;;;16.40;99.90;;;;;;4995534;28;20108;-88
2021/07/07 05:00:50;;;;;;;4.25;2.60;;;16.40;99.90;;;;;;4996694;28;20439;-88
2021/07/07 05:03:16;;;;;;;4.10;2.15;;;16.40;99.90;;;;;;4999295;28;20021;-88
2021/07/07 05:05:42;;;;;;;3.22;1.88;;;16.40;99.90;;;;;;4995436;28;20052;-88
2021/07/07 05:08:08;;;;;;;4.05;1.92;;;16.30;99.90;;;;;;4998258;28;20076;-88
2021/07/07 05:10:34;;;;;;;3.80;2.22;;;16.30;99.90;;;;;;5005674;28;20064;-88
2021/07/07 05:13:04;;;;;;;4.38;2.25;;;16.30;99.90;;;;;;4994654;28;20033;-88
2021/07/07 05:15:30;;;;;;;3.80;2.08;;;16.30;99.90;;;;;;4989558;28;20400;-86
2021/07/07 05:17:55;;;;;;;3.08;1.65;;;16.30;99.90;;;;;;5005202;28;20026;-86
2021/07/07 05:20:21;;;;;;;3.63;1.52;;;16.30;99.90;;;;;;4991915;28;20064;-85
2021/07/07 05:22:47;;;;;;;2.78;1.48;;;16.20;99.90;;;;;;4993355;28;20114;-86
2021/07/07 05:25:14;;;;;;;2.90;1.40;;;16.20;99.90;;;;;;5009095;28;20112;-86
2021/07/07 05:27:40;;;;;;;2.70;1.30;;;16.20;99.90;;;;;;4992567;28;20018;-85
2021/07/07 05:30:10;;;;;;;4.03;1.48;;;16.20;99.90;;;;;;4990128;28;20555;-85
2021/07/07 05:32:36;;;;;;;3.50;1.85;;;16.20;99.90;;;;;;5006635;28;20109;-85
2021/07/07 05:35:03;;;;;;;2.90;1.58;;;16.30;99.90;;;;;;4991717;28;20113;-85
2021/07/07 05:37:28;;;;;;;2.05;1.17;;;16.30;99.90;;;;;;4988430;28;20022;-87
2021/07/07 05:39:54;;;;;;;3.83;1.20;;;16.30;99.90;;;;;;4986865;28;20099;-84
2021/07/07 05:42:37;;;;;;;2.08;1.00;;;16.20;99.90;;;;;;4983187;28;20117;-84
2021/07/07 05:45:04;;;;;;;3.05;1.20;;;16.30;99.90;;;;;;5006561;28;20036;-84
2021/07/07 05:47:29;;;;;;;3.67;1.20;;;16.30;99.90;;;;;;5005901;28;20503;-84
2021/07/07 05:49:57;;;;;;;1.70;0.82;;;16.30;99.90;;;;;;5004152;28;20022;-83
2021/07/07 05:52:24;;;;;;;1.83;0.90;;;16.30;99.90;;;;;;5008029;28;20031;-84
2021/07/07 05:54:51;;;;;;;2.03;0.95;;;16.30;99.90;;;;;;4988295;28;20027;-84
2021/07/07 05:57:17;;;;;;;2.53;1.10;;;16.30;99.90;;;;;;4991712;28;20096;-83
2021/07/07 05:59:43;;;;;;;2.92;0.88;;;16.30;99.90;;;;;;4987528;28;20061;-84
2021/07/07 06:02:08;;;;;;;1.60;0.90;;;16.30;99.90;;;;;;5010135;28;20049;-84
2021/07/07 06:04:34;;;;;;;3.33;0.95;;;16.30;99.90;;;;;;5008083;28;20033;-84
2021/07/07 06:06:59;;;;;;;2.88;0.70;;;16.30;99.90;;;;;;5007719;28;20037;-84
2021/07/07 06:09:25;;;;;;;2.03;0.82;;;16.40;99.90;;;;;;4990998;28;20109;-85
2021/07/07 06:11:51;;;;;;;2.35;0.93;;;16.40;99.90;;;;;;5005942;28;20041;-86
2021/07/07 06:14:17;;;;;;;2.08;0.88;;;16.40;99.90;;;;;;5000927;28;20053;-85
2021/07/07 06:16:44;;;;;;;3.85;0.77;;;16.40;99.90;;;;;;4989094;28;20068;-85
2021/07/07 06:19:09;;;;;;;2.50;0.93;;;16.40;99.90;;;;;;5007990;28;20080;-85
2021/07/07 06:21:35;;;;;;;3.58;1.20;;;16.40;99.90;;;;;;4992690;28;20027;-85
2021/07/07 06:24:01;;;;;;;2.15;1.08;;;16.30;99.90;;;;;;4992017;28;20506;-85
2021/07/07 06:26:31;;;;;;;4.80;1.02;;;16.30;99.90;;;;;;4986822;28;20108;-84
2021/07/07 06:28:57;;;;;;;2.90;1.20;;;16.40;99.90;;;;;;5005907;28;20163;-85
2021/07/07 06:31:23;;;;;;;2.60;1.00;;;16.40;99.90;;;;;;5007665;28;20029;-82
2021/07/07 06:33:49;;;;;;;3.35;1.00;;;16.40;99.90;;;;;;5008145;28;20471;-83
2021/07/07 06:36:15;;;;;;;3.00;0.77;;;16.50;99.90;;;;;;4993320;28;20026;-83
2021/07/07 06:38:41;;;;;;;3.17;0.90;;;16.50;99.90;;;;;;5009916;28;20105;-82
2021/07/07 06:41:07;;;;;;;2.60;0.90;;;16.60;99.90;;;;;;5013383;28;20022;-84
2021/07/07 06:43:35;;;;;;;3.20;0.93;;;16.50;99.90;;;;;;4988908;28;20025;-87
2021/07/07 06:46:01;;;;;;;3.03;1.00;;;16.60;99.90;;;;;;5011211;28;20045;-83
2021/07/07 06:48:28;;;;;;;2.50;0.90;;;16.60;99.90;;;;;;5010416;28;20088;-84
2021/07/07 06:50:54;;;;;;;2.97;0.65;;;16.60;99.90;;;;;;5011693;28;20051;-84
2021/07/07 06:53:25;;;;;;;3.22;0.80;;;16.60;99.90;;;;;;4995154;28;20022;-84
2021/07/07 06:55:51;;;;;;;1.98;0.80;;;16.60;99.90;;;;;;4991294;28;20515;-85
2021/07/07 06:58:16;;;;;;;3.90;0.80;;;16.60;99.90;;;;;;4996960;28;20391;-85
2021/07/07 07:00:42;;;;;;;2.33;0.80;;;16.50;99.90;;;;;;4995105;28;20045;-82
2021/07/07 07:03:08;;;;;;;2.17;0.98;;;16.40;99.90;;;;;;5001697;28;20084;-82
2021/07/07 07:05:34;;;;;;;2.25;0.73;;;16.50;99.90;;;;;;4995909;28;20026;-82
2021/07/07 07:08:01;;;;;;;2.00;0.70;;;16.50;99.90;;;;;;4994690;28;20033;-82
2021/07/07 07:10:27;;;;;;;2.88;0.88;;;16.50;99.90;;;;;;4995111;28;20030;-82
2021/07/07 07:12:56;;;;;;;3.55;1.02;;;16.50;99.90;;;;;;4982526;28;20037;-82
2021/07/07 07:15:22;;;;;;;2.33;1.00;;;16.40;99.90;;;;;;5010556;28;20090;-82
2021/07/07 07:17:49;;;;;;;2.28;0.82;;;16.50;99.90;;;;;;4990018;28;20065;-82
2021/07/07 07:20:16;;;;;;;2.28;1.08;;;16.40;99.90;;;;;;4994257;28;20030;-82
2021/07/07 07:22:45;;;;;;;2.65;1.08;;;16.40;99.90;;;;;;5011114;28;20037;-83
2021/07/07 07:25:12;;;;;;;2.58;0.88;;;16.30;99.90;;;;;;4991083;28;20033;-84
2021/07/07 07:27:38;;;;;;;2.53;0.93;;;16.40;99.90;;;;;;4982453;28;20467;-83
2021/07/07 07:30:07;;;;;;;2.78;0.90;;;16.50;99.90;;;;;;4994089;28;20589;-83
2021/07/07 07:32:32;;;;;;;4.13;0.77;;;16.60;99.90;;;;;;4992614;28;20054;-83
2021/07/07 07:34:58;;;;;;;3.03;1.30;;;16.70;99.90;;;;;;4994193;28;20080;-83
2021/07/07 07:37:26;;;;;;;3.15;1.00;;;16.80;99.90;;;;;;5012098;28;20478;-83
2021/07/07 07:39:54;;;;;;;4.88;0.70;;;16.80;99.90;;;;;;4993797;28;20050;-82
2021/07/07 07:42:20;;;;;;;2.50;0.70;;;16.90;99.90;;;;;;4977930;28;20106;-82
2021/07/07 07:44:46;;;;;;;2.03;0.80;;;16.90;99.90;;;;;;4983098;28;20787;-82
2021/07/07 07:47:14;;;;;;;5.00;1.00;;;17.00;99.90;;;;;;4992457;28;20025;-83
2021/07/07 07:49:40;;;;;;;2.22;0.90;;;17.00;99.90;;;;;;5010604;28;21265;-81
2021/07/07 07:52:07;;;;;;;2.47;0.90;;;17.00;99.90;;;;;;5009997;28;20029;-81
2021/07/07 07:54:33;;;;;;;2.58;0.80;;;17.00;99.90;;;;;;5002496;28;20492;-81
2021/07/07 07:57:00;;;;;;;2.30;0.88;;;16.90;99.90;;;;;;4993571;28;20078;-81
2021/07/07 07:59:26;;;;;;;2.28;0.90;;;16.80;99.90;;;;;;4999044;28;20088;-81
2021/07/07 08:01:52;;;;;;;2.47;0.90;;;16.80;99.90;;;;;;4994259;28;20029;-82
2021/07/07 08:04:18;;;;;;;3.42;0.90;;;16.80;99.90;;;;;;5011345;28;20025;-81
2021/07/07 08:06:45;;;;;;;2.88;0.73;;;16.70;99.90;;;;;;4990579;28;20062;-81
2021/07/07 08:09:11;;;;;;;4.35;1.02;;;16.80;99.90;;;;;;5008968;28;20577;-81
2021/07/07 08:11:36;;;;;;;3.15;0.63;;;16.80;99.90;;;;;;5011150;28;20065;-82
2021/07/07 08:14:03;;;;;;;2.90;1.05;;;16.80;99.90;;;;;;5003994;28;20132;-82
2021/07/07 08:16:29;;;;;;;3.22;1.00;;;16.90;99.90;;;;;;4989458;28;20117;-82
2021/07/07 08:18:55;;;;;;;2.72;0.95;;;16.90;99.90;;;;;;4989182;28;20109;-81
2021/07/07 08:21:20;;;;;;;3.70;1.33;;;16.90;99.90;;;;;;5004193;28;20549;-82
2021/07/07 08:23:47;;;;;;;2.67;0.75;;;16.90;99.90;;;;;;5009664;28;20492;-81
2021/07/07 08:26:13;;;;;;;3.75;0.90;;;16.80;99.90;;;;;;4992427;28;20022;-81
2021/07/07 08:28:39;;;;;;;1.77;0.60;;;16.60;99.90;;;;;;5007246;28;20026;-82
2021/07/07 08:31:05;;;;;;;1.67;0.60;;;16.70;99.90;;;;;;5009588;28;20492;-82
2021/07/07 08:33:30;;;;;;;2.50;0.93;;;16.70;99.90;;;;;;4989471;28;20109;-81
2021/07/07 08:35:56;;;;;;;2.20;0.73;;;16.70;99.90;;;;;;4982678;28;20412;-82
2021/07/07 08:38:22;;;;;;;2.22;0.70;;;16.80;99.90;;;;;;5003667;28;20028;-81
2021/07/07 08:40:48;;;;;;;3.00;0.60;;;16.90;99.90;;;;;;4991262;28;20476;-82
2021/07/07 08:43:13;;;;;;;2.28;0.60;;;16.80;99.90;;;;;;4993259;28;20223;-82
2021/07/07 08:45:39;;;;;;;0.80;0.40;;;16.80;99.90;;;;;;4995980;28;20109;-82
2021/07/07 08:48:05;;;;;;;1.83;0.68;;;17.00;99.90;;;;;;4996939;28;20022;-82
2021/07/07 08:50:34;;;;;;;2.50;0.60;;;17.00;99.90;;;;;;4989505;28;20034;-82
2021/07/07 08:53:02;;;;;;;1.23;0.50;;;17.20;99.90;;;;;;5008741;28;20022;-82
2021/07/07 08:55:29;;;;;;;2.75;0.75;;;17.00;99.90;;;;;;4991521;28;20028;-82
2021/07/07 08:57:57;;;;;;;1.98;0.85;;;17.00;99.90;;;;;;4990585;28;20046;-82
2021/07/07 09:00:35;;;;;;;5.72;1.00;;;17.00;99.90;;;;;;5008259;28;20068;-82
2021/07/07 09:03:04;;;;;;;3.60;1.25;;;17.20;99.90;;;;;;5002701;28;20031;-82
2021/07/07 09:05:30;;;;;;;3.33;0.80;;;17.30;99.90;;;;;;4973226;28;20555;-82
2021/07/07 09:08:04;;;;;;;4.13;1.23;;;17.50;99.90;;;;;;4990605;28;20027;-82
2021/07/07 09:10:32;;;;;;;3.47;1.00;;;17.60;99.90;;;;;;5005741;28;20038;-82
2021/07/07 09:13:24;;;;;;;2.65;1.02;;;17.80;99.90;;;;;;4989265;28;20022;-82
2021/07/07 09:15:51;;;;;;;3.83;0.80;;;18.00;99.90;;;;;;5005299;28;20042;-82
2021/07/07 09:18:33;;;;;;;2.80;0.80;;;18.00;99.90;;;;;;4989650;28;20023;-82
2021/07/07 09:20:59;;;;;;;3.63;1.17;;;18.20;99.90;;;;;;5007608;28;20080;-82
2021/07/07 09:23:27;;;;;;;4.05;0.77;;;18.30;99.90;;;;;;5011614;28;20038;-83
2021/07/07 09:25:56;;;;;;;4.80;0.77;;;18.30;99.90;;;;;;4974364;28;20083;-83
2021/07/07 09:28:25;;;;;;;5.55;0.93;;;18.30;99.90;;;;;;4974704;28;20381;-83
2021/07/07 09:30:53;;;;;;;2.42;0.80;;;18.40;99.90;;;;;;4994068;28;20599;-83
2021/07/07 09:33:20;;;;;;;2.15;0.75;;;18.40;99.90;;;;;;4994494;28;20026;-83
2021/07/07 09:35:46;;;;;;;2.92;1.00;;;18.40;99.90;;;;;;4998933;28;20389;-83
2021/07/07 09:38:12;;;;;;;3.88;1.20;;;18.40;99.90;;;;;;4992368;28;20534;-83
2021/07/07 09:40:42;;;;;;;2.90;1.23;;;18.30;99.90;;;;;;4994055;28;20021;-83
2021/07/07 09:43:13;;;;;;;1.77;0.90;;;18.30;99.90;;;;;;5006016;28;20031;-83
2021/07/07 09:45:46;;;;;;;3.85;1.13;;;18.30;99.90;;;;;;4991009;28;20022;-83
2021/07/07 09:48:15;;;;;;;3.75;0.90;;;18.10;99.90;;;;;;4989768;28;20035;-83
2021/07/07 09:50:45;;;;;;;3.13;1.15;;;18.20;99.90;;;;;;4984828;28;20112;-83
2021/07/07 09:53:13;;;;;;;3.47;0.95;;;18.20;99.90;;;;;;4989679;28;20489;-83
2021/07/07 09:55:40;;;;;;;1.95;0.75;;;18.10;99.90;;;;;;4989945;28;20026;-83
2021/07/07 09:58:07;;;;;;;1.98;0.93;;;18.10;99.90;;;;;;4988262;28;20023;-83
2021/07/07 10:00:38;;;;;;;5.72;1.20;;;18.20;99.90;;;;;;4989179;28;20041;-83
2021/07/07 10:03:05;;;;;;;2.55;0.88;;;18.20;99.90;;;;;;4991618;28;20488;-83
2021/07/07 10:05:40;;;;;;;2.95;1.30;;;18.20;99.90;;;;;;5009498;28;20034;-83
2021/07/07 10:08:08;;;;;;;2.53;0.80;;;18.20;99.90;;;;;;4999337;28;20100;-84
2021/07/07 10:10:36;;;;;;;3.35;0.75;;;18.40;99.90;;;;;;4992470;28;20030;-83
2021/07/07 10:13:02;;;;;;;3.67;0.90;;;18.10;99.90;;;;;;4992451;28;20026;-83
2021/07/07 10:15:28;;;;;;;2.88;1.00;;;18.10;99.90;;;;;;4991810;28;20030;-83
2021/07/07 10:17:54;;;;;;;3.50;0.82;;;18.10;99.90;;;;;;4975608;28;20538;-82
2021/07/07 10:20:20;;;;;;;2.50;0.85;;;18.00;99.90;;;;;;4978125;28;20026;-83
2021/07/07 10:22:45;;;;;;;4.78;1.10;;;18.00;99.90;;;;;;4994696;28;20368;-83
2021/07/07 10:25:37;;;;;;;3.70;0.95;;;18.10;99.90;;;;;;5006799;28;20058;-83
2021/07/07 10:28:07;;;;;;;1.85;0.80;;;18.30;99.90;;;;;;4990709;28;20042;-83
2021/07/07 10:30:51;;;;;;;1.45;0.70;;;18.30;99.90;;;;;;4995098;28;20029;-83
2021/07/07 10:33:18;;;;;;;2.28;0.70;;;18.40;99.90;;;;;;4988674;28;20030;-83
2021/07/07 10:35:44;;;;;;;2.47;0.98;;;18.50;99.90;;;;;;4975857;28;20030;-83
2021/07/07 10:38:11;;;;;;;2.53;0.70;;;18.60;99.90;;;;;;5002831;28;20025;-83
2021/07/07 10:40:40;;;;;;;2.78;0.88;;;18.70;99.90;;;;;;5013007;28;20026;-83
2021/07/07 10:43:07;;;;;;;3.40;0.95;;;19.00;99.90;;;;;;5003304;28;20069;-83
2021/07/07 10:45:39;;;;;;;1.98;0.90;;;19.20;99.90;;;;;;4994703;28;20036;-83
2021/07/07 10:48:25;;;;;;;2.00;0.88;;;19.30;99.90;;;;;;4994704;28;20026;-83
2021/07/07 10:50:53;;;;;;;3.80;1.00;;;19.50;99.90;;;;;;5002897;28;20569;-83
2021/07/07 10:53:29;;;;;;;3.17;0.93;;;19.30;99.90;;;;;;4994292;28;20030;-84
2021/07/07 10:55:55;;;;;;;3.20;0.90;;;19.20;99.90;;;;;;4987044;28;20025;-83
2021/07/07 10:58:27;;;;;;;5.45;1.20;;;19.10;99.90;;;;;;4993497;28;20018;-83
2021/07/07 11:00:53;;;;;;;4.10;0.98;;;19.10;99.90;;;;;;4994503;28;20121;-82
2021/07/07 11:03:37;;;;;;;3.28;1.40;;;19.30;99.90;;;;;;5012108;28;20113;-83
2021/07/07 11:06:38;;;;;;;2.13;0.90;;;19.40;99.90;;;;;;4986650;28;20384;-83
2021/07/07 11:09:19;;;;;;;2.00;1.00;;;19.40;99.90;;;;;;4963445;28;20156;-83
2021/07/07 11:11:47;;;;;;;1.83;0.63;;;19.40;99.90;;;;;;4992027;28;20496;-83
2021/07/07 11:14:20;;;;;;;2.05;0.80;;;19.60;99.90;;;;;;4992889;28;20038;-84
2021/07/07 11:16:51;;;;;;;1.45;0.60;;;19.50;99.90;;;;;;5005795;28;20025;-83
2021/07/07 11:19:52;;;;;;;4.28;0.85;;;19.60;99.90;;;;;;4985935;28;20072;-83
2021/07/07 11:22:18;;;;;;;2.50;0.80;;;19.70;99.90;;;;;;4950585;28;20040;-84
2021/07/07 11:24:50;;;;;;;2.25;0.73;;;19.70;99.90;;;;;;4982451;28;20102;-84
2021/07/07 11:27:16;;;;;;;2.17;0.73;;;19.80;99.90;;;;;;5014062;28;20037;-83
2021/07/07 11:29:43;;;;;;;2.85;0.70;;;19.80;99.90;;;;;;5011060;28;20045;-83
2021/07/07 11:32:35;;;;;;;2.00;0.70;;;19.70;99.90;;;;;;4991225;28;20034;-83
2021/07/07 11:35:15;;;;;;;6.30;1.20;;;19.80;99.90;;;;;;4994879;28;20065;-83
2021/07/07 11:37:42;;;;;;;2.40;0.80;;;19.90;99.90;;;;;;5011113;28;20022;-83
2021/07/07 11:40:14;;;;;;;2.03;1.10;;;20.00;99.90;;;;;;4994443;28;20026;-83
2021/07/07 11:42:55;;;;;;;3.53;1.10;;;20.00;99.90;;;;;;4993072;28;20022;-84
2021/07/07 11:45:22;;;;;;;1.73;0.90;;;20.10;99.90;;;;;;5012318;28;20041;-83
2021/07/07 11:47:54;;;;;;;2.95;1.20;;;20.10;99.90;;;;;;4994160;28;20064;-83
2021/07/07 11:50:20;;;;;;;4.15;0.93;;;20.10;99.90;;;;;;4991674;28;20092;-80
2021/07/07 11:52:57;;;;;;;3.10;0.70;;;20.10;99.90;;;;;;4995667;28;20026;-82
2021/07/07 11:55:42;;;;;;;2.22;0.70;;;20.30;99.90;;;;;;4995023;28;20137;-82
2021/07/07 11:58:09;;;;;;;2.38;0.68;;;20.40;99.90;;;;;;5005532;28;20021;-81
2021/07/07 12:00:38;;;;;;;3.35;0.98;;;20.60;99.90;;;;;;4994070;28;20033;-81
2021/07/07 12:03:04;;;;;;;1.50;0.60;;;20.60;99.90;;;;;;4994149;28;20042;-82
2021/07/07 12:05:30;;;;;;;1.45;0.63;;;20.50;99.90;;;;;;5007409;28;20042;-83
2021/07/07 12:08:20;;;;;;;3.17;0.70;;;20.80;99.90;;;;;;4995972;28;20040;-82
2021/07/07 12:10:46;;;;;;;1.92;0.57;;;21.10;99.90;;;;;;5011131;28;20104;-82
2021/07/07 12:13:22;;;;;;;1.60;0.60;;;21.30;99.90;;;;;;5010068;28;20025;-82
2021/07/07 12:15:48;;;;;;;1.30;0.43;;;21.40;99.90;;;;;;4995990;28;20033;-82
2021/07/07 12:18:28;;;;;;;1.30;0.50;;;21.40;99.90;;;;;;5006590;28;20400;-82
2021/07/07 12:20:57;;;;;;;1.70;0.70;;;21.30;99.90;;;;;;4995489;28;20029;-83
2021/07/07 12:23:23;;;;;;;3.25;0.77;;;21.30;99.90;;;;;;4995948;28;20425;-82
2021/07/07 12:26:00;;;;;;;2.00;0.73;;;21.40;99.90;;;;;;4993076;28;20026;-82
2021/07/07 12:28:26;;;;;;;2.00;0.65;;;21.40;99.90;;;;;;5006799;28;20044;-82
2021/07/07 12:30:55;;;;;;;3.17;0.73;;;21.50;99.90;;;;;;4989490;28;20034;-84
2021/07/07 12:33:21;;;;;;;1.08;0.32;;;21.50;99.90;;;;;;4992980;28;21241;-83
2021/07/07 12:35:48;;;;;;;1.92;0.60;;;21.40;99.90;;;;;;5001064;28;20033;-83
2021/07/07 12:38:14;;;;;;;8.57;0.85;;;21.50;99.90;;;;;;5028483;23;20781;-81
2021/07/07 12:40:40;;;;;;;2.50;0.40;;;21.50;99.90;;;;;;5002991;28;20049;-84
2021/07/07 12:43:15;;;;;;;1.58;0.60;;;21.50;99.90;;;;;;4998531;28;20065;-82
2021/07/07 12:45:41;;;;;;;1.85;0.57;;;21.40;99.90;;;;;;4993750;28;20140;-84
2021/07/07 12:48:08;;;;;;;1.23;0.60;;;21.50;99.90;;;;;;5015403;28;20700;-84